createdAt,value
2023-03-01T00:01:16.732Z,11.55
2023-03-01T00:03:46.173Z,11.93
2023-03-01T00:06:14.379Z,12.98
2023-03-01T00:08:42.529Z,14.93
2023-03-01T00:11:13.807Z,13.48
2023-03-01T00:13:42.507Z,13.18
2023-03-01T00:16:13.857Z,15.05
2023-03-01T00:18:42.172Z,17.02
2023-03-01T00:21:11.573Z,16.50
2023-03-01T00:23:40.179Z,12.00
2023-03-01T00:26:10.264Z,13.20
2023-03-01T00:28:38.563Z,14.00
2023-03-01T00:31:07.468Z,14.63
2023-03-01T00:33:35.764Z,15.77
2023-03-01T00:36:04.584Z,14.00
2023-03-01T00:38:37.135Z,14.32
2023-03-01T00:41:06.510Z,15.97
2023-03-01T00:43:37.603Z,15.45
2023-03-01T00:46:06.963Z,14.90
2023-03-01T00:48:35.274Z,15.50
2023-03-01T00:51:08.390Z,17.80
2023-03-01T00:53:38.313Z,17.95
2023-03-01T00:56:08.253Z,16.45
2023-03-01T00:58:36.712Z,15.80
2023-03-01T01:01:18.001Z,17.40
2023-03-01T01:03:47.986Z,17.53
2023-03-01T01:06:17.894Z,16.55
2023-03-01T01:08:47.227Z,18.30
2023-03-01T01:11:15.705Z,16.98
2023-03-01T01:13:45.743Z,21.20
2023-03-01T01:16:14.330Z,17.25
2023-03-01T01:18:42.497Z,18.83
2023-03-01T01:21:12.696Z,20.80
2023-03-01T01:23:41.874Z,17.98
2023-03-01T01:26:13.698Z,19.15
2023-03-01T01:28:42.113Z,21.50
2023-03-01T01:31:10.235Z,17.08
2023-03-01T01:33:39.268Z,18.45
2023-03-01T01:36:07.851Z,18.02
2023-03-01T01:38:36.143Z,21.27
2023-03-01T01:41:04.253Z,19.80
2023-03-01T01:43:37.398Z,20.83
2023-03-01T01:46:08.878Z,17.48
2023-03-01T01:48:43.848Z,20.00
2023-03-01T01:51:15.181Z,19.15
2023-03-01T01:53:44.651Z,18.52
2023-03-01T01:56:14.862Z,20.10
2023-03-01T01:58:48.502Z,19.35
2023-03-01T02:01:16.501Z,20.83
2023-03-01T02:03:46.718Z,19.55
2023-03-01T02:06:20.741Z,21.13
2023-03-01T02:08:51.344Z,20.95
2023-03-01T02:11:20.594Z,19.38
2023-03-01T02:13:50.575Z,22.38
2023-03-01T02:16:19.568Z,20.58
2023-03-01T02:18:48.228Z,20.92
2023-03-01T02:21:32.126Z,20.75
2023-03-01T02:24:03.623Z,21.23
2023-03-01T02:26:40.006Z,21.40
2023-03-01T02:29:09.636Z,19.83
2023-03-01T02:31:43.664Z,20.27
2023-03-01T02:34:13.819Z,22.85
2023-03-01T02:36:44.945Z,20.00
2023-03-01T02:39:18.536Z,18.17
2023-03-01T02:41:49.697Z,23.63
2023-03-01T02:44:19.321Z,18.98
2023-03-01T02:46:49.512Z,23.50
2023-03-01T02:49:23.701Z,21.05
2023-03-01T02:52:22.648Z,21.75
2023-03-01T02:54:54.807Z,21.88
2023-03-01T02:57:23.796Z,21.73
2023-03-01T02:59:54.865Z,22.00
2023-03-01T03:02:36.797Z,24.80
2023-03-01T03:05:11.264Z,23.35
2023-03-01T03:07:41.664Z,24.20
2023-03-01T03:10:13.135Z,21.95
2023-03-01T03:12:41.146Z,22.83
2023-03-01T03:15:13.719Z,22.75
2023-03-01T03:17:45.375Z,22.08
2023-03-01T03:20:20.065Z,21.52
2023-03-01T03:22:48.958Z,21.85
2023-03-01T03:25:17.137Z,25.75
2023-03-01T03:27:46.451Z,24.40
2023-03-01T03:30:18.234Z,26.20
2023-03-01T03:32:53.093Z,24.30
2023-03-01T03:35:22.428Z,22.60
2023-03-01T03:38:07.129Z,20.80
2023-03-01T03:40:38.445Z,22.88
2023-03-01T03:43:08.423Z,21.63
2023-03-01T03:45:38.163Z,24.02
2023-03-01T03:48:08.797Z,22.40
2023-03-01T03:50:37.037Z,21.70
2023-03-01T03:53:07.903Z,20.42
2023-03-01T03:55:36.348Z,21.80
2023-03-01T03:58:07.729Z,21.05
2023-03-01T04:00:38.614Z,21.75
2023-03-01T04:03:07.108Z,20.52
2023-03-01T04:05:35.436Z,23.35
2023-03-01T04:08:03.511Z,22.23
2023-03-01T04:10:32.792Z,21.88
2023-03-01T04:13:00.739Z,22.25
2023-03-01T04:15:29.191Z,22.45
2023-03-01T04:18:00.048Z,22.17
2023-03-01T04:20:30.000Z,24.88
2023-03-01T04:23:11.344Z,23.33
2023-03-01T04:25:40.908Z,24.08
2023-03-01T04:28:09.155Z,22.38
2023-03-01T04:30:37.736Z,21.10
2023-03-01T04:33:08.441Z,20.75
2023-03-01T04:35:37.774Z,21.67
2023-03-01T04:38:06.392Z,17.90
2023-03-01T04:40:34.736Z,22.13
2023-03-01T04:43:03.117Z,19.75
2023-03-01T04:45:31.123Z,20.98
2023-03-01T04:47:59.557Z,18.85
2023-03-01T04:50:28.811Z,20.20
2023-03-01T04:52:59.366Z,22.00
2023-03-01T04:55:28.101Z,20.10
2023-03-01T04:57:56.504Z,19.88
2023-03-01T05:00:25.474Z,22.90
2023-03-01T05:02:55.906Z,18.73
2023-03-01T05:05:30.211Z,19.10
2023-03-01T05:07:59.768Z,19.88
2023-03-01T05:10:30.061Z,19.33
2023-03-01T05:12:59.175Z,18.67
2023-03-01T05:15:28.404Z,18.70
2023-03-01T05:17:59.677Z,19.57
2023-03-01T05:20:29.658Z,18.45
2023-03-01T05:23:00.566Z,19.73
2023-03-01T05:25:33.902Z,18.52
2023-03-01T05:28:05.123Z,18.67
2023-03-01T05:30:33.883Z,19.75
2023-03-01T05:33:02.656Z,18.55
2023-03-01T05:35:34.748Z,19.38
2023-03-01T05:38:02.752Z,19.27
2023-03-01T05:40:30.755Z,17.27
2023-03-01T05:42:59.358Z,18.10
2023-03-01T05:45:28.832Z,19.13
2023-03-01T05:47:56.782Z,20.42
2023-03-01T05:50:26.606Z,20.90
2023-03-01T05:53:00.714Z,19.20
2023-03-01T05:55:29.594Z,18.65
2023-03-01T05:57:59.571Z,21.08
2023-03-01T06:00:27.977Z,18.50
2023-03-01T06:02:56.177Z,21.10
2023-03-01T06:05:24.622Z,19.58
2023-03-01T06:07:53.885Z,19.00
2023-03-01T06:10:24.776Z,20.48
2023-03-01T06:12:52.725Z,20.75
2023-03-01T06:15:22.251Z,18.80
2023-03-01T06:17:50.719Z,18.90
2023-03-01T06:20:20.882Z,20.13
2023-03-01T06:22:50.080Z,20.55
2023-03-01T06:25:20.469Z,19.20
2023-03-01T06:27:50.614Z,20.95
2023-03-01T06:30:20.477Z,23.13
2023-03-01T06:32:48.801Z,21.38
2023-03-01T06:35:19.178Z,18.27
2023-03-01T06:37:47.624Z,19.30
2023-03-01T06:40:16.449Z,16.73
2023-03-01T06:42:49.830Z,18.00
2023-03-01T06:45:20.893Z,18.20
2023-03-01T06:47:49.185Z,18.67
2023-03-01T06:50:18.221Z,18.10
2023-03-01T06:55:14.484Z,17.20
2023-03-01T06:57:42.719Z,17.30
2023-03-01T07:00:12.010Z,16.85
2023-03-01T07:02:41.401Z,16.73
2023-03-01T07:05:09.899Z,16.98
2023-03-01T07:07:37.880Z,15.00
2023-03-01T07:10:06.777Z,16.20
2023-03-01T07:12:34.873Z,16.08
2023-03-01T07:15:02.833Z,15.45
2023-03-01T07:17:30.773Z,18.33
2023-03-01T07:20:00.072Z,16.83
2023-03-01T07:22:28.061Z,16.38
2023-03-01T07:24:56.016Z,16.92
2023-03-01T07:27:23.877Z,17.17
2023-03-01T07:29:51.804Z,18.85
2023-03-01T07:32:20.093Z,17.50
2023-03-01T07:34:48.137Z,20.37
2023-03-01T07:37:17.673Z,19.13
2023-03-01T07:39:45.592Z,17.50
2023-03-01T07:42:13.577Z,17.92
2023-03-01T07:44:41.553Z,19.90
2023-03-01T07:47:09.491Z,22.35
2023-03-01T07:49:37.409Z,22.42
2023-03-01T07:52:05.708Z,22.33
2023-03-01T07:54:35.122Z,19.23
2023-03-01T07:57:03.052Z,20.40
2023-03-01T07:59:31.028Z,20.10
2023-03-01T08:01:59.393Z,22.55
2023-03-01T08:04:27.735Z,22.35
2023-03-01T08:06:55.852Z,20.27
2023-03-01T08:09:24.342Z,24.42
2023-03-01T08:11:53.645Z,22.17
2023-03-01T08:14:21.645Z,24.48
2023-03-01T08:16:51.680Z,23.27
2023-03-01T08:19:19.869Z,22.25
2023-03-01T08:21:47.784Z,21.38
2023-03-01T08:24:15.797Z,23.60
2023-03-01T08:26:43.729Z,21.77
2023-03-01T08:29:13.028Z,22.30
2023-03-01T08:31:42.238Z,22.92
2023-03-01T08:34:12.351Z,23.67
2023-03-01T08:36:41.864Z,22.58
2023-03-01T08:39:10.911Z,21.05
2023-03-01T08:41:39.169Z,24.27
2023-03-01T08:44:07.732Z,23.48
2023-03-01T08:46:41.339Z,22.15
2023-03-01T08:49:10.230Z,21.20
2023-03-01T08:51:38.633Z,22.42
2023-03-01T08:54:07.773Z,22.25
2023-03-01T08:56:35.976Z,22.33
2023-03-01T08:59:03.967Z,23.88
2023-03-01T09:01:32.297Z,22.23
2023-03-01T09:04:02.092Z,20.83
2023-03-01T09:06:33.680Z,21.65
2023-03-01T09:09:02.604Z,19.97
2023-03-01T09:11:30.714Z,22.33
2023-03-01T09:13:58.985Z,20.38
2023-03-01T09:16:27.024Z,20.75
2023-03-01T09:18:56.364Z,21.63
2023-03-01T09:21:39.741Z,21.75
2023-03-01T09:24:10.427Z,20.88
2023-03-01T09:26:38.415Z,22.27
2023-03-01T09:29:06.724Z,19.67
2023-03-01T09:31:34.753Z,19.42
2023-03-01T09:34:02.752Z,18.15
2023-03-01T09:36:32.719Z,17.77
2023-03-01T09:39:02.194Z,17.55
2023-03-01T09:41:46.930Z,18.95
2023-03-01T09:44:26.827Z,19.67
2023-03-01T09:46:54.941Z,16.37
2023-03-01T09:49:27.052Z,17.70
2023-03-01T09:52:02.890Z,16.13
2023-03-01T09:54:30.959Z,18.45
2023-03-01T09:57:19.528Z,18.92
2023-03-01T10:00:05.160Z,15.48
2023-03-01T10:02:40.293Z,12.55
2023-03-01T10:05:32.103Z,13.03
2023-03-01T10:08:25.754Z,12.13
2023-03-01T10:10:55.274Z,12.65
2023-03-01T10:13:29.838Z,12.70
2023-03-01T10:16:01.510Z,15.35
2023-03-01T10:18:33.640Z,17.63
2023-03-01T10:21:03.779Z,12.82
2023-03-01T10:23:35.926Z,12.93
2023-03-01T10:26:15.116Z,14.13
2023-03-01T10:28:52.343Z,16.77
2023-03-01T10:31:29.238Z,14.43
2023-03-01T10:33:59.727Z,15.37
2023-03-01T10:36:27.744Z,14.90
2023-03-01T10:38:59.072Z,16.27
2023-03-01T10:41:28.508Z,15.73
2023-03-01T10:43:58.012Z,15.10
2023-03-01T10:46:28.554Z,17.55
2023-03-01T10:49:15.549Z,15.90
2023-03-01T10:51:45.535Z,14.25
2023-03-01T10:54:24.041Z,13.25
2023-03-01T10:56:54.688Z,11.80
2023-03-01T10:59:28.039Z,11.70
2023-03-01T11:02:26.039Z,14.47
2023-03-01T11:05:02.149Z,12.00
2023-03-01T11:07:30.887Z,12.70
2023-03-01T11:10:00.316Z,14.65
2023-03-01T11:12:30.734Z,13.02
2023-03-01T11:14:59.657Z,14.52
2023-03-01T11:17:34.616Z,13.60
2023-03-01T11:20:18.564Z,14.80
2023-03-01T11:22:52.471Z,13.80
2023-03-01T11:25:25.696Z,11.70
2023-03-01T11:27:55.302Z,10.90
2023-03-01T11:30:28.008Z,8.60
2023-03-01T11:33:07.444Z,8.38
2023-03-01T11:35:39.432Z,7.90
2023-03-01T11:38:19.660Z,8.02
2023-03-01T11:40:56.130Z,11.23
2023-03-01T11:43:31.889Z,7.70
2023-03-01T11:46:31.414Z,10.38
2023-03-01T11:49:10.783Z,7.75
2023-03-01T11:51:48.937Z,7.35
2023-03-01T11:54:30.224Z,8.90
2023-03-01T11:57:06.434Z,7.90
2023-03-01T12:00:04.824Z,8.23
2023-03-01T12:03:12.549Z,7.15
2023-03-01T12:06:25.191Z,8.43
2023-03-01T12:09:06.928Z,8.30
2023-03-01T12:11:45.148Z,7.72
2023-03-01T12:14:34.559Z,8.70
2023-03-01T12:17:38.907Z,8.50
2023-03-01T12:20:20.476Z,10.05
2023-03-01T12:23:14.575Z,9.30
2023-03-01T12:25:52.042Z,8.77
2023-03-01T12:28:34.310Z,9.60
2023-03-01T12:31:33.201Z,7.82
2023-03-01T12:34:10.830Z,10.48
2023-03-01T12:36:58.222Z,6.97
2023-03-01T12:39:40.596Z,7.13
2023-03-01T12:42:18.419Z,6.97
2023-03-01T12:45:04.032Z,6.97
2023-03-01T12:47:57.575Z,8.18
2023-03-01T12:50:34.891Z,6.90
2023-03-01T12:53:02.858Z,6.75
2023-03-01T12:55:35.642Z,6.93
2023-03-01T12:58:13.886Z,6.50
2023-03-01T13:00:48.340Z,5.70
2023-03-01T13:03:25.694Z,7.60
2023-03-01T13:06:06.909Z,8.30
2023-03-01T13:08:42.669Z,8.45
2023-03-01T13:11:19.883Z,7.35
2023-03-01T13:13:49.772Z,7.15
2023-03-01T13:16:43.882Z,6.50
2023-03-01T13:19:16.630Z,7.00
2023-03-01T13:21:47.226Z,8.93
2023-03-01T13:24:28.880Z,6.72
2023-03-01T13:27:26.013Z,6.80
2023-03-01T13:29:55.851Z,9.40
2023-03-01T13:32:34.530Z,6.97
2023-03-01T13:35:45.378Z,6.20
2023-03-01T13:38:40.739Z,6.68
2023-03-01T13:41:09.192Z,7.37
2023-03-01T13:43:38.886Z,6.22
2023-03-01T13:46:17.666Z,6.87
2023-03-01T13:48:49.456Z,7.00
2023-03-01T13:51:17.383Z,8.63
2023-03-01T13:53:49.527Z,6.55
2023-03-01T13:56:21.969Z,8.20
2023-03-01T13:58:54.167Z,7.70
2023-03-01T14:01:31.846Z,7.35
2023-03-01T14:04:00.800Z,6.07
2023-03-01T14:06:31.298Z,5.93
2023-03-01T14:09:17.213Z,7.55
2023-03-01T14:12:17.377Z,6.30
2023-03-01T14:14:54.311Z,7.30
2023-03-01T14:17:38.501Z,7.30
2023-03-01T14:20:14.325Z,7.57
2023-03-01T14:22:43.800Z,5.80
2023-03-01T14:25:24.936Z,5.82
2023-03-01T14:28:06.233Z,5.50
2023-03-01T14:30:37.323Z,6.93
2023-03-01T14:33:08.281Z,8.38
2023-03-01T14:35:38.171Z,6.57
2023-03-01T14:38:06.246Z,6.70
2023-03-01T14:40:38.025Z,6.10
2023-03-01T14:43:12.965Z,7.57
2023-03-01T14:45:41.052Z,5.90
2023-03-01T14:48:09.979Z,6.85
2023-03-01T14:50:43.327Z,6.93
2023-03-01T14:53:19.552Z,6.00
2023-03-01T14:55:53.851Z,6.60
2023-03-01T14:58:23.693Z,6.00
2023-03-01T15:00:54.929Z,6.22
2023-03-01T15:03:30.645Z,7.00
2023-03-01T15:05:59.174Z,6.00
2023-03-01T15:08:33.794Z,5.80
2023-03-01T15:11:08.927Z,5.60
2023-03-01T15:13:37.838Z,6.65
2023-03-01T15:16:11.526Z,6.43
2023-03-01T15:18:45.277Z,6.15
2023-03-01T15:21:20.560Z,6.57
2023-03-01T15:23:54.488Z,5.20
2023-03-01T15:26:31.114Z,6.05
2023-03-01T15:29:01.149Z,5.90
2023-03-01T15:31:31.698Z,7.70
2023-03-01T15:34:23.170Z,5.97
2023-03-01T15:36:52.016Z,8.13
2023-03-01T15:39:44.239Z,6.70
2023-03-01T15:42:14.931Z,6.00
2023-03-01T15:44:46.086Z,7.43
2023-03-01T15:47:29.784Z,8.13
2023-03-01T15:50:00.036Z,9.35
2023-03-01T15:52:31.008Z,6.72
2023-03-01T15:55:01.129Z,8.55
2023-03-01T15:57:30.776Z,7.22
2023-03-01T15:59:58.817Z,6.50
2023-03-01T16:02:27.189Z,7.35
2023-03-01T16:04:57.405Z,8.48
2023-03-01T16:07:27.825Z,6.35
2023-03-01T16:09:55.880Z,7.10
2023-03-01T16:12:25.198Z,7.40
2023-03-01T16:14:55.019Z,6.72
2023-03-01T16:17:23.102Z,7.30
2023-03-01T16:19:51.082Z,9.88
2023-03-01T16:22:22.014Z,8.03
2023-03-01T16:24:50.018Z,8.30
2023-03-01T16:27:18.349Z,8.63
2023-03-01T16:29:46.330Z,9.20
2023-03-01T16:32:15.763Z,8.55
2023-03-01T16:34:43.938Z,8.48
2023-03-01T16:37:11.927Z,8.40
2023-03-01T16:39:40.795Z,7.40
2023-03-01T16:42:08.828Z,10.02
2023-03-01T16:44:36.796Z,8.13
2023-03-01T16:47:04.825Z,8.48
2023-03-01T16:49:34.217Z,9.00
2023-03-01T16:52:02.208Z,9.32
2023-03-01T16:54:30.216Z,7.20
2023-03-01T16:56:58.959Z,8.40
2023-03-01T16:59:26.964Z,8.50
2023-03-01T17:01:55.080Z,12.02
2023-03-01T17:04:23.202Z,9.23
2023-03-01T17:06:52.949Z,10.15
2023-03-01T17:09:22.979Z,6.95
2023-03-01T17:11:51.465Z,8.15
2023-03-01T17:14:19.692Z,8.75
2023-03-01T17:16:47.803Z,9.17
2023-03-01T17:19:18.654Z,11.88
2023-03-01T17:21:47.015Z,9.57
2023-03-01T17:24:16.447Z,11.23
2023-03-01T17:26:44.555Z,8.77
2023-03-01T17:29:13.800Z,7.85
2023-03-01T17:31:41.836Z,9.03
2023-03-01T17:34:09.845Z,10.93
2023-03-01T17:36:44.679Z,9.20
2023-03-01T17:39:12.910Z,11.65
2023-03-01T17:41:42.333Z,8.20
2023-03-01T17:44:10.594Z,8.82
2023-03-01T17:46:38.757Z,8.95
2023-03-01T17:49:06.727Z,8.27
2023-03-01T17:51:35.633Z,10.43
2023-03-01T17:54:05.449Z,7.88
2023-03-01T17:56:33.944Z,11.32
2023-03-01T17:59:03.373Z,9.05
2023-03-01T18:01:31.814Z,11.38
2023-03-01T18:04:00.097Z,11.20
2023-03-01T18:06:30.343Z,9.52
2023-03-01T18:08:58.587Z,8.18
2023-03-01T18:11:27.105Z,7.93
2023-03-01T18:13:55.293Z,10.20
2023-03-01T18:16:24.813Z,9.63
2023-03-01T18:18:55.001Z,11.30
2023-03-01T18:21:23.662Z,10.82
2023-03-01T18:23:51.916Z,11.07
2023-03-01T18:26:22.280Z,10.82
2023-03-01T18:28:51.176Z,12.38
2023-03-01T18:31:22.245Z,11.43
2023-03-01T18:33:55.815Z,10.98
2023-03-01T18:36:25.938Z,11.15
2023-03-01T18:38:56.261Z,10.63
2023-03-01T18:41:25.333Z,13.20
2023-03-01T18:43:53.913Z,9.60
2023-03-01T18:46:21.982Z,12.75
2023-03-01T18:48:52.790Z,12.25
2023-03-01T18:51:22.411Z,10.52
2023-03-01T18:53:50.660Z,12.07
2023-03-01T18:56:18.936Z,11.32
2023-03-01T18:58:47.088Z,11.23
2023-03-01T19:01:16.287Z,11.55
2023-03-01T19:03:44.446Z,12.53
2023-03-01T19:06:14.247Z,12.65
2023-03-01T19:08:43.252Z,11.43
2023-03-01T19:11:12.932Z,10.63
2023-03-01T19:13:41.916Z,11.35
2023-03-01T19:16:12.056Z,12.63
2023-03-01T19:18:41.636Z,10.47
2023-03-01T19:21:11.570Z,11.55
2023-03-01T19:23:40.982Z,13.60
2023-03-01T19:26:10.629Z,11.13
2023-03-01T19:28:39.793Z,12.43
2023-03-01T19:31:10.005Z,13.63
2023-03-01T19:33:39.989Z,14.00
2023-03-01T19:36:09.445Z,12.20
2023-03-01T19:38:38.373Z,12.13
2023-03-01T19:41:09.989Z,16.85
2023-03-01T19:43:38.199Z,15.55
2023-03-01T19:46:06.501Z,11.32
2023-03-01T19:48:34.642Z,11.77
2023-03-01T19:51:02.686Z,13.40
2023-03-01T19:53:30.637Z,11.43
2023-03-01T19:56:00.145Z,10.52
2023-03-01T19:58:30.767Z,12.38
2023-03-01T20:01:01.127Z,13.68
2023-03-01T20:03:31.341Z,12.35
2023-03-01T20:06:02.520Z,12.80
2023-03-01T20:08:31.778Z,14.43
2023-03-01T20:11:03.388Z,13.25
2023-03-01T20:13:32.931Z,13.70
2023-03-01T20:16:00.947Z,11.65
2023-03-01T20:18:29.786Z,13.40
2023-03-01T20:20:59.500Z,13.80
2023-03-01T20:23:27.831Z,14.30
2023-03-01T20:26:04.684Z,11.73
2023-03-01T20:28:36.083Z,12.45
2023-03-01T20:31:06.410Z,12.20
2023-03-01T20:33:35.034Z,14.13
2023-03-01T20:36:03.058Z,13.60
2023-03-01T20:38:31.164Z,14.25
2023-03-01T20:41:00.724Z,12.52
2023-03-01T20:43:29.159Z,14.05
2023-03-01T20:45:58.636Z,15.82
2023-03-01T20:48:26.741Z,11.23
2023-03-01T20:50:56.795Z,17.27
2023-03-01T20:53:24.809Z,15.20
2023-03-01T20:55:52.771Z,13.98
2023-03-01T20:58:20.768Z,15.25
2023-03-01T21:00:52.078Z,14.80
2023-03-01T21:03:21.404Z,14.80
2023-03-01T21:05:49.420Z,13.88
2023-03-01T21:08:17.424Z,14.07
2023-03-01T21:10:51.149Z,16.85
2023-03-01T21:13:19.265Z,13.52
2023-03-01T21:15:54.310Z,14.18
2023-03-01T21:18:23.894Z,14.25
2023-03-01T21:20:51.851Z,15.32
2023-03-01T21:23:19.826Z,17.17
2023-03-01T21:25:47.838Z,16.65
2023-03-01T21:28:15.880Z,15.75
2023-03-01T21:30:43.909Z,14.90
2023-03-01T21:33:11.946Z,18.17
2023-03-01T21:35:41.346Z,16.52
2023-03-01T21:38:09.293Z,18.17
2023-03-01T21:40:38.379Z,17.53
2023-03-01T21:43:06.366Z,16.17
2023-03-01T21:45:36.505Z,16.98
2023-03-01T21:48:04.648Z,18.50
2023-03-01T21:50:32.578Z,16.40
2023-03-01T21:53:05.207Z,16.83
2023-03-01T21:55:34.149Z,18.45
2023-03-01T21:58:02.157Z,18.45
2023-03-01T22:00:30.188Z,17.17
2023-03-01T22:02:58.373Z,16.85
2023-03-01T22:05:26.620Z,17.30
2023-03-01T22:07:55.269Z,18.17
2023-03-01T22:10:27.360Z,17.35
2023-03-01T22:12:56.050Z,19.40
2023-03-01T22:15:26.201Z,17.48
2023-03-01T22:17:55.084Z,17.08
2023-03-01T22:20:23.192Z,19.08
2023-03-01T22:22:51.334Z,16.37
2023-03-01T22:25:19.580Z,16.63
2023-03-01T22:27:49.064Z,17.42
2023-03-01T22:30:17.568Z,18.73
2023-03-01T22:32:45.898Z,16.70
2023-03-01T22:35:14.221Z,19.00
2023-03-01T22:37:42.356Z,18.20
2023-03-01T22:40:11.556Z,16.65
2023-03-01T22:42:39.705Z,17.17
2023-03-01T22:45:11.100Z,16.77
2023-03-01T22:47:39.264Z,19.38
2023-03-01T22:50:13.134Z,17.00
2023-03-01T22:52:41.226Z,15.57
2023-03-01T22:55:10.625Z,16.92
2023-03-01T22:57:38.786Z,17.77
2023-03-01T23:00:13.219Z,18.20
2023-03-01T23:02:41.767Z,16.90
2023-03-01T23:05:10.676Z,19.33
2023-03-01T23:07:39.024Z,17.40
2023-03-01T23:10:08.174Z,16.63
2023-03-01T23:12:36.312Z,18.65
2023-03-01T23:15:05.070Z,18.52
2023-03-01T23:17:34.710Z,22.53
2023-03-01T23:20:06.394Z,19.77
2023-03-01T23:22:34.521Z,19.38
2023-03-01T23:25:02.612Z,19.92
2023-03-01T23:27:31.628Z,22.33
2023-03-01T23:29:59.874Z,20.75
2023-03-01T23:32:28.018Z,20.77
2023-03-01T23:34:57.549Z,23.38
2023-03-01T23:37:31.188Z,23.83
2023-03-01T23:39:59.313Z,26.20
2023-03-01T23:42:27.458Z,23.45
2023-03-01T23:44:55.538Z,24.10
2023-03-01T23:47:23.666Z,24.65
2023-03-01T23:49:51.757Z,24.40
2023-03-01T23:52:21.228Z,26.00
2023-03-01T23:54:49.202Z,25.85
2023-03-01T23:57:17.261Z,28.85
2023-03-01T23:59:45.420Z,27.90
